sensor_id;sensor_type;location;lat;lon;timestamp;P1;durP1;ratioP1;P2;durP2;ratioP2
78622;SDS011;67943;54.412;9.502;2023-03-04T00:04:50;14.25;;;1.92;;
78622;SDS011;67943;54.412;9.502;2023-03-04T00:09:53;7.18;;;1.40;;
78622;SDS011;67943;54.412;9.502;2023-03-04T00:14:54;7.97;;;1.50;;
78622;SDS011;67943;54.412;9.502;2023-03-04T00:19:56;13.52;;;2.00;;
78622;SDS011;67943;54.412;9.502;2023-03-04T00:24:59;9.85;;;1.67;;
78622;SDS011;67943;54.412;9.502;2023-03-04T00:30:00;13.50;;;2.35;;
78622;SDS011;67943;54.412;9.502;2023-03-04T00:35:03;9.98;;;1.77;;
78622;SDS011;67943;54.412;9.502;2023-03-04T00:40:07;7.85;;;1.85;;
78622;SDS011;67943;54.412;9.502;2023-03-04T00:45:09;14.23;;;2.10;;
78622;SDS011;67943;54.412;9.502;2023-03-04T00:50:11;10.65;;;1.90;;
78622;SDS011;67943;54.412;9.502;2023-03-04T00:55:14;9.95;;;1.95;;
78622;SDS011;67943;54.412;9.502;2023-03-04T01:00:16;10.07;;;1.88;;
78622;SDS011;67943;54.412;9.502;2023-03-04T01:05:18;12.00;;;1.60;;
78622;SDS011;67943;54.412;9.502;2023-03-04T01:15:22;13.15;;;1.70;;
78622;SDS011;67943;54.412;9.502;2023-03-04T01:20:23;12.07;;;2.03;;
78622;SDS011;67943;54.412;9.502;2023-03-04T01:25:26;11.98;;;1.90;;
78622;SDS011;67943;54.412;9.502;2023-03-04T01:30:28;10.43;;;1.65;;
78622;SDS011;67943;54.412;9.502;2023-03-04T01:35:29;12.60;;;1.80;;
78622;SDS011;67943;54.412;9.502;2023-03-04T01:40:32;19.25;;;2.38;;
78622;SDS011;67943;54.412;9.502;2023-03-04T01:45:34;9.35;;;1.98;;
78622;SDS011;67943;54.412;9.502;2023-03-04T01:50:36;8.93;;;1.95;;
78622;SDS011;67943;54.412;9.502;2023-03-04T01:55:39;12.15;;;1.80;;
78622;SDS011;67943;54.412;9.502;2023-03-04T02:00:40;10.93;;;1.92;;
78622;SDS011;67943;54.412;9.502;2023-03-04T02:05:43;16.80;;;2.10;;
78622;SDS011;67943;54.412;9.502;2023-03-04T02:10:48;13.40;;;1.98;;
78622;SDS011;67943;54.412;9.502;2023-03-04T02:15:51;11.20;;;1.67;;
78622;SDS011;67943;54.412;9.502;2023-03-04T02:20:55;7.22;;;1.30;;
78622;SDS011;67943;54.412;9.502;2023-03-04T02:26:11;14.90;;;2.45;;
78622;SDS011;67943;54.412;9.502;2023-03-04T02:31:18;13.00;;;1.98;;
78622;SDS011;67943;54.412;9.502;2023-03-04T02:36:23;15.05;;;2.50;;
78622;SDS011;67943;54.412;9.502;2023-03-04T02:41:27;9.95;;;1.63;;
78622;SDS011;67943;54.412;9.502;2023-03-04T02:46:29;14.13;;;2.80;;
78622;SDS011;67943;54.412;9.502;2023-03-04T02:51:31;14.75;;;2.30;;
78622;SDS011;67943;54.412;9.502;2023-03-04T03:01:35;18.17;;;2.38;;
78622;SDS011;67943;54.412;9.502;2023-03-04T03:06:36;14.77;;;2.50;;
78622;SDS011;67943;54.412;9.502;2023-03-04T03:11:40;17.30;;;3.10;;
78622;SDS011;67943;54.412;9.502;2023-03-04T03:16:41;14.98;;;3.00;;
78622;SDS011;67943;54.412;9.502;2023-03-04T03:21:43;18.80;;;3.33;;
78622;SDS011;67943;54.412;9.502;2023-03-04T03:31:47;19.23;;;3.08;;
78622;SDS011;67943;54.412;9.502;2023-03-04T03:36:48;27.98;;;3.63;;
78622;SDS011;67943;54.412;9.502;2023-03-04T03:41:51;24.20;;;4.97;;
78622;SDS011;67943;54.412;9.502;2023-03-04T03:46:53;21.40;;;3.42;;
78622;SDS011;67943;54.412;9.502;2023-03-04T03:51:54;28.40;;;4.70;;
78622;SDS011;67943;54.412;9.502;2023-03-04T04:01:58;27.05;;;3.95;;
78622;SDS011;67943;54.412;9.502;2023-03-04T04:12:04;19.15;;;3.97;;
78622;SDS011;67943;54.412;9.502;2023-03-04T04:17:07;25.52;;;4.15;;
78622;SDS011;67943;54.412;9.502;2023-03-04T04:22:10;25.85;;;4.05;;
78622;SDS011;67943;54.412;9.502;2023-03-04T04:27:15;20.50;;;3.03;;
78622;SDS011;67943;54.412;9.502;2023-03-04T04:32:17;21.05;;;3.70;;
78622;SDS011;67943;54.412;9.502;2023-03-04T04:42:21;28.00;;;3.75;;
78622;SDS011;67943;54.412;9.502;2023-03-04T04:47:23;25.58;;;4.03;;
78622;SDS011;67943;54.412;9.502;2023-03-04T04:52:24;20.75;;;3.15;;
78622;SDS011;67943;54.412;9.502;2023-03-04T05:02:28;18.73;;;2.60;;
78622;SDS011;67943;54.412;9.502;2023-03-04T05:12:33;13.73;;;2.43;;
78622;SDS011;67943;54.412;9.502;2023-03-04T05:17:34;15.27;;;2.65;;
78622;SDS011;67943;54.412;9.502;2023-03-04T05:22:36;15.18;;;2.67;;
78622;SDS011;67943;54.412;9.502;2023-03-04T05:27:39;13.35;;;3.10;;
78622;SDS011;67943;54.412;9.502;2023-03-04T05:32:40;19.02;;;3.20;;
78622;SDS011;67943;54.412;9.502;2023-03-04T05:37:42;17.45;;;3.00;;
78622;SDS011;67943;54.412;9.502;2023-03-04T05:42:44;18.13;;;3.40;;
78622;SDS011;67943;54.412;9.502;2023-03-04T05:47:46;22.98;;;3.45;;
78622;SDS011;67943;54.412;9.502;2023-03-04T05:52:47;21.17;;;3.85;;
78622;SDS011;67943;54.412;9.502;2023-03-04T05:57:51;16.70;;;3.58;;
78622;SDS011;67943;54.412;9.502;2023-03-04T06:02:52;23.80;;;4.55;;
78622;SDS011;67943;54.412;9.502;2023-03-04T06:07:54;20.42;;;3.60;;
78622;SDS011;67943;54.412;9.502;2023-03-04T06:12:57;25.38;;;3.72;;
78622;SDS011;67943;54.412;9.502;2023-03-04T06:17:58;24.02;;;3.78;;
78622;SDS011;67943;54.412;9.502;2023-03-04T06:22:59;29.10;;;4.55;;
78622;SDS011;67943;54.412;9.502;2023-03-04T06:28:02;20.65;;;3.65;;
78622;SDS011;67943;54.412;9.502;2023-03-04T06:33:04;30.80;;;4.32;;
78622;SDS011;67943;54.412;9.502;2023-03-04T06:38:05;17.55;;;4.30;;
78622;SDS011;67943;54.412;9.502;2023-03-04T06:43:08;22.48;;;3.95;;
78622;SDS011;67943;54.412;9.502;2023-03-04T06:48:10;29.83;;;5.18;;
78622;SDS011;67943;54.412;9.502;2023-03-04T06:53:12;26.13;;;4.15;;
78622;SDS011;67943;54.412;9.502;2023-03-04T07:03:17;23.27;;;3.72;;
78622;SDS011;67943;54.412;9.502;2023-03-04T07:08:18;25.80;;;4.40;;
78622;SDS011;67943;54.412;9.502;2023-03-04T07:13:21;19.50;;;3.50;;
78622;SDS011;67943;54.412;9.502;2023-03-04T07:18:23;24.27;;;3.40;;
78622;SDS011;67943;54.412;9.502;2023-03-04T07:23:24;21.80;;;3.25;;
78622;SDS011;67943;54.412;9.502;2023-03-04T07:28:27;20.92;;;3.75;;
78622;SDS011;67943;54.412;9.502;2023-03-04T07:33:28;20.95;;;2.90;;
78622;SDS011;67943;54.412;9.502;2023-03-04T07:43:33;13.35;;;2.95;;
78622;SDS011;67943;54.412;9.502;2023-03-04T07:48:34;18.73;;;3.20;;
78622;SDS011;67943;54.412;9.502;2023-03-04T07:53:37;25.25;;;4.32;;
78622;SDS011;67943;54.412;9.502;2023-03-04T07:58:41;20.63;;;3.78;;
78622;SDS011;67943;54.412;9.502;2023-03-04T08:03:43;23.00;;;3.30;;
78622;SDS011;67943;54.412;9.502;2023-03-04T08:13:48;22.52;;;4.13;;
78622;SDS011;67943;54.412;9.502;2023-03-04T08:18:53;20.15;;;3.20;;
78622;SDS011;67943;54.412;9.502;2023-03-04T08:23:56;26.30;;;3.85;;
78622;SDS011;67943;54.412;9.502;2023-03-04T08:29:00;33.22;;;4.40;;
78622;SDS011;67943;54.412;9.502;2023-03-04T08:34:03;23.13;;;3.75;;
78622;SDS011;67943;54.412;9.502;2023-03-04T08:39:05;28.02;;;4.38;;
78622;SDS011;67943;54.412;9.502;2023-03-04T08:44:07;25.90;;;4.50;;
78622;SDS011;67943;54.412;9.502;2023-03-04T08:49:15;19.25;;;3.70;;
78622;SDS011;67943;54.412;9.502;2023-03-04T08:54:59;24.85;;;5.43;;
78622;SDS011;67943;54.412;9.502;2023-03-04T09:05:39;24.73;;;4.50;;
78622;SDS011;67943;54.412;9.502;2023-03-04T09:10:41;22.15;;;5.13;;
78622;SDS011;67943;54.412;9.502;2023-03-04T09:15:44;23.90;;;5.05;;
78622;SDS011;67943;54.412;9.502;2023-03-04T09:20:48;33.90;;;6.05;;
78622;SDS011;67943;54.412;9.502;2023-03-04T09:25:50;21.77;;;3.88;;
78622;SDS011;67943;54.412;9.502;2023-03-04T09:35:54;19.00;;;3.42;;
78622;SDS011;67943;54.412;9.502;2023-03-04T09:40:58;20.00;;;3.25;;
78622;SDS011;67943;54.412;9.502;2023-03-04T09:46:07;21.58;;;3.75;;
78622;SDS011;67943;54.412;9.502;2023-03-04T09:51:19;19.25;;;4.70;;
78622;SDS011;67943;54.412;9.502;2023-03-04T09:56:22;20.25;;;4.05;;
78622;SDS011;67943;54.412;9.502;2023-03-04T10:01:27;22.58;;;6.55;;
78622;SDS011;67943;54.412;9.502;2023-03-04T10:06:31;17.55;;;3.45;;
78622;SDS011;67943;54.412;9.502;2023-03-04T10:11:34;12.18;;;3.58;;
78622;SDS011;67943;54.412;9.502;2023-03-04T10:16:43;14.23;;;2.67;;
78622;SDS011;67943;54.412;9.502;2023-03-04T10:21:49;17.33;;;2.92;;
78622;SDS011;67943;54.412;9.502;2023-03-04T10:26:52;11.68;;;3.08;;
78622;SDS011;67943;54.412;9.502;2023-03-04T10:31:57;13.80;;;3.03;;
78622;SDS011;67943;54.412;9.502;2023-03-04T10:36:59;9.93;;;2.03;;
78622;SDS011;67943;54.412;9.502;2023-03-04T10:42:03;15.00;;;3.20;;
78622;SDS011;67943;54.412;9.502;2023-03-04T10:47:09;11.30;;;2.78;;
78622;SDS011;67943;54.412;9.502;2023-03-04T10:52:14;13.90;;;3.38;;
78622;SDS011;67943;54.412;9.502;2023-03-04T10:57:24;12.73;;;3.42;;
78622;SDS011;67943;54.412;9.502;2023-03-04T11:02:34;14.80;;;3.35;;
78622;SDS011;67943;54.412;9.502;2023-03-04T11:07:38;12.35;;;2.95;;
78622;SDS011;67943;54.412;9.502;2023-03-04T11:12:40;15.20;;;3.08;;
78622;SDS011;67943;54.412;9.502;2023-03-04T11:17:44;12.05;;;3.05;;
78622;SDS011;67943;54.412;9.502;2023-03-04T11:22:48;12.40;;;4.03;;
78622;SDS011;67943;54.412;9.502;2023-03-04T11:27:52;12.95;;;4.25;;
78622;SDS011;67943;54.412;9.502;2023-03-04T11:32:58;12.23;;;3.17;;
78622;SDS011;67943;54.412;9.502;2023-03-04T11:38:09;11.55;;;2.72;;
78622;SDS011;67943;54.412;9.502;2023-03-04T11:43:18;7.13;;;2.03;;
78622;SDS011;67943;54.412;9.502;2023-03-04T11:48:28;12.82;;;2.50;;
78622;SDS011;67943;54.412;9.502;2023-03-04T11:53:43;11.02;;;2.40;;
78622;SDS011;67943;54.412;9.502;2023-03-04T11:59:03;12.65;;;2.17;;
78622;SDS011;67943;54.412;9.502;2023-03-04T12:04:29;12.82;;;2.22;;
78622;SDS011;67943;54.412;9.502;2023-03-04T12:09:46;9.98;;;2.05;;
78622;SDS011;67943;54.412;9.502;2023-03-04T12:15:00;8.38;;;2.08;;
78622;SDS011;67943;54.412;9.502;2023-03-04T12:25:36;13.73;;;2.40;;
78622;SDS011;67943;54.412;9.502;2023-03-04T12:30:45;10.02;;;2.15;;
78622;SDS011;67943;54.412;9.502;2023-03-04T12:35:59;8.48;;;2.28;;
78622;SDS011;67943;54.412;9.502;2023-03-04T12:41:22;10.43;;;2.42;;
78622;SDS011;67943;54.412;9.502;2023-03-04T12:46:32;12.50;;;2.85;;
78622;SDS011;67943;54.412;9.502;2023-03-04T12:51:42;12.95;;;2.50;;
78622;SDS011;67943;54.412;9.502;2023-03-04T12:56:49;7.03;;;2.35;;
78622;SDS011;67943;54.412;9.502;2023-03-04T13:01:58;9.88;;;2.05;;
78622;SDS011;67943;54.412;9.502;2023-03-04T13:07:13;8.90;;;1.95;;
78622;SDS011;67943;54.412;9.502;2023-03-04T13:12:22;9.13;;;2.77;;
78622;SDS011;67943;54.412;9.502;2023-03-04T13:17:36;9.30;;;2.38;;
78622;SDS011;67943;54.412;9.502;2023-03-04T13:22:45;24.65;;;9.98;;
78622;SDS011;67943;54.412;9.502;2023-03-04T13:28:04;8.85;;;2.47;;
78622;SDS011;67943;54.412;9.502;2023-03-04T13:38:55;12.48;;;2.53;;
78622;SDS011;67943;54.412;9.502;2023-03-04T13:43:59;11.68;;;2.15;;
78622;SDS011;67943;54.412;9.502;2023-03-04T13:49:02;9.50;;;2.17;;
78622;SDS011;67943;54.412;9.502;2023-03-04T13:54:10;9.38;;;2.08;;
78622;SDS011;67943;54.412;9.502;2023-03-04T13:59:20;6.45;;;1.80;;
78622;SDS011;67943;54.412;9.502;2023-03-04T14:04:28;12.68;;;2.53;;
78622;SDS011;67943;54.412;9.502;2023-03-04T14:09:34;12.05;;;2.05;;
78622;SDS011;67943;54.412;9.502;2023-03-04T14:14:41;12.13;;;2.45;;
78622;SDS011;67943;54.412;9.502;2023-03-04T14:19:48;10.18;;;2.42;;
78622;SDS011;67943;54.412;9.502;2023-03-04T14:24:55;10.18;;;2.08;;
78622;SDS011;67943;54.412;9.502;2023-03-04T14:30:01;9.48;;;2.28;;
78622;SDS011;67943;54.412;9.502;2023-03-04T14:35:06;8.52;;;2.00;;
78622;SDS011;67943;54.412;9.502;2023-03-04T14:40:21;9.20;;;2.00;;
78622;SDS011;67943;54.412;9.502;2023-03-04T14:45:25;7.22;;;2.17;;
78622;SDS011;67943;54.412;9.502;2023-03-04T14:50:28;10.75;;;2.00;;
78622;SDS011;67943;54.412;9.502;2023-03-04T14:55:31;7.30;;;1.92;;
78622;SDS011;67943;54.412;9.502;2023-03-04T15:00:34;20.88;;;5.35;;
78622;SDS011;67943;54.412;9.502;2023-03-04T15:05:36;7.95;;;2.20;;
78622;SDS011;67943;54.412;9.502;2023-03-04T15:10:39;14.25;;;2.20;;
78622;SDS011;67943;54.412;9.502;2023-03-04T15:15:41;13.40;;;3.25;;
78622;SDS011;67943;54.412;9.502;2023-03-04T15:20:51;7.57;;;2.20;;
78622;SDS011;67943;54.412;9.502;2023-03-04T15:25:56;11.20;;;2.35;;
78622;SDS011;67943;54.412;9.502;2023-03-04T15:30:58;15.43;;;2.60;;
78622;SDS011;67943;54.412;9.502;2023-03-04T15:36:00;12.75;;;2.47;;
78622;SDS011;67943;54.412;9.502;2023-03-04T15:41:04;15.05;;;2.53;;
78622;SDS011;67943;54.412;9.502;2023-03-04T15:46:07;9.93;;;2.20;;
78622;SDS011;67943;54.412;9.502;2023-03-04T15:51:11;13.60;;;1.83;;
78622;SDS011;67943;54.412;9.502;2023-03-04T15:56:16;7.35;;;1.65;;
78622;SDS011;67943;54.412;9.502;2023-03-04T16:01:21;11.75;;;2.03;;
78622;SDS011;67943;54.412;9.502;2023-03-04T16:06:24;9.40;;;1.92;;
78622;SDS011;67943;54.412;9.502;2023-03-04T16:11:31;10.85;;;2.65;;
78622;SDS011;67943;54.412;9.502;2023-03-04T16:16:40;14.57;;;2.88;;
78622;SDS011;67943;54.412;9.502;2023-03-04T16:21:42;8.30;;;1.70;;
78622;SDS011;67943;54.412;9.502;2023-03-04T16:26:45;12.25;;;3.28;;
78622;SDS011;67943;54.412;9.502;2023-03-04T16:31:47;10.10;;;2.10;;
78622;SDS011;67943;54.412;9.502;2023-03-04T16:41:53;16.75;;;4.20;;
78622;SDS011;67943;54.412;9.502;2023-03-04T16:46:55;13.20;;;3.70;;
78622;SDS011;67943;54.412;9.502;2023-03-04T16:56:59;6.78;;;2.20;;
78622;SDS011;67943;54.412;9.502;2023-03-04T17:02:00;11.65;;;3.40;;
78622;SDS011;67943;54.412;9.502;2023-03-04T17:12:05;18.80;;;3.03;;
78622;SDS011;67943;54.412;9.502;2023-03-04T17:17:09;14.07;;;3.08;;
78622;SDS011;67943;54.412;9.502;2023-03-04T17:22:10;13.73;;;2.80;;
78622;SDS011;67943;54.412;9.502;2023-03-04T17:27:13;9.93;;;3.47;;
78622;SDS011;67943;54.412;9.502;2023-03-04T17:32:15;10.15;;;2.67;;
78622;SDS011;67943;54.412;9.502;2023-03-04T17:37:16;10.30;;;2.72;;
78622;SDS011;67943;54.412;9.502;2023-03-04T17:47:21;14.95;;;2.80;;
78622;SDS011;67943;54.412;9.502;2023-03-04T17:57:25;15.45;;;3.83;;
78622;SDS011;67943;54.412;9.502;2023-03-04T18:02:26;7.88;;;2.70;;
78622;SDS011;67943;54.412;9.502;2023-03-04T18:12:31;12.70;;;2.90;;
78622;SDS011;67943;54.412;9.502;2023-03-04T18:17:32;10.05;;;2.20;;
78622;SDS011;67943;54.412;9.502;2023-03-04T18:22:35;7.32;;;1.90;;
78622;SDS011;67943;54.412;9.502;2023-03-04T18:27:37;10.02;;;2.70;;
78622;SDS011;67943;54.412;9.502;2023-03-04T18:32:39;10.38;;;2.67;;
78622;SDS011;67943;54.412;9.502;2023-03-04T18:37:41;9.20;;;2.95;;
78622;SDS011;67943;54.412;9.502;2023-03-04T18:42:45;9.95;;;2.63;;
78622;SDS011;67943;54.412;9.502;2023-03-04T18:47:47;11.07;;;2.55;;
78622;SDS011;67943;54.412;9.502;2023-03-04T18:52:50;11.57;;;3.05;;
78622;SDS011;67943;54.412;9.502;2023-03-04T18:57:54;9.85;;;2.92;;
78622;SDS011;67943;54.412;9.502;2023-03-04T19:03:01;7.80;;;2.42;;
78622;SDS011;67943;54.412;9.502;2023-03-04T19:08:07;7.97;;;2.28;;
78622;SDS011;67943;54.412;9.502;2023-03-04T19:13:10;12.55;;;3.22;;
78622;SDS011;67943;54.412;9.502;2023-03-04T19:18:11;7.80;;;2.40;;
78622;SDS011;67943;54.412;9.502;2023-03-04T19:23:13;6.60;;;1.70;;
78622;SDS011;67943;54.412;9.502;2023-03-04T19:28:16;8.82;;;2.35;;
78622;SDS011;67943;54.412;9.502;2023-03-04T19:33:18;11.77;;;2.88;;
78622;SDS011;67943;54.412;9.502;2023-03-04T19:38:20;7.20;;;2.08;;
78622;SDS011;67943;54.412;9.502;2023-03-04T19:43:23;9.70;;;2.13;;
78622;SDS011;67943;54.412;9.502;2023-03-04T19:48:24;6.95;;;1.73;;
78622;SDS011;67943;54.412;9.502;2023-03-04T19:53:26;7.18;;;2.20;;
78622;SDS011;67943;54.412;9.502;2023-03-04T19:58:29;5.70;;;1.55;;
78622;SDS011;67943;54.412;9.502;2023-03-04T20:03:30;6.82;;;1.52;;
78622;SDS011;67943;54.412;9.502;2023-03-04T20:08:32;13.65;;;2.30;;
78622;SDS011;67943;54.412;9.502;2023-03-04T20:13:36;8.38;;;2.30;;
78622;SDS011;67943;54.412;9.502;2023-03-04T20:18:38;8.60;;;2.10;;
78622;SDS011;67943;54.412;9.502;2023-03-04T20:23:40;6.13;;;1.35;;
78622;SDS011;67943;54.412;9.502;2023-03-04T20:28:43;8.82;;;1.73;;
78622;SDS011;67943;54.412;9.502;2023-03-04T20:33:45;7.70;;;1.80;;
78622;SDS011;67943;54.412;9.502;2023-03-04T20:38:48;7.28;;;1.40;;
78622;SDS011;67943;54.412;9.502;2023-03-04T20:43:51;10.20;;;2.10;;
78622;SDS011;67943;54.412;9.502;2023-03-04T20:48:53;7.57;;;1.65;;
78622;SDS011;67943;54.412;9.502;2023-03-04T20:53:55;14.15;;;1.92;;
78622;SDS011;67943;54.412;9.502;2023-03-04T20:58:58;9.88;;;1.58;;
78622;SDS011;67943;54.412;9.502;2023-03-04T21:04:02;9.35;;;2.10;;
78622;SDS011;67943;54.412;9.502;2023-03-04T21:09:05;11.75;;;3.60;;
78622;SDS011;67943;54.412;9.502;2023-03-04T21:14:11;9.32;;;2.22;;
78622;SDS011;67943;54.412;9.502;2023-03-04T21:19:14;7.63;;;2.00;;
78622;SDS011;67943;54.412;9.502;2023-03-04T21:24:19;5.43;;;1.60;;
78622;SDS011;67943;54.412;9.502;2023-03-04T21:29:23;5.50;;;1.38;;
78622;SDS011;67943;54.412;9.502;2023-03-04T21:34:27;8.52;;;1.90;;
78622;SDS011;67943;54.412;9.502;2023-03-04T21:39:32;8.52;;;1.52;;
78622;SDS011;67943;54.412;9.502;2023-03-04T21:44:36;6.72;;;1.83;;
78622;SDS011;67943;54.412;9.502;2023-03-04T21:49:38;9.00;;;1.75;;
78622;SDS011;67943;54.412;9.502;2023-03-04T21:59:42;9.32;;;1.55;;
78622;SDS011;67943;54.412;9.502;2023-03-04T22:04:43;5.32;;;1.85;;
78622;SDS011;67943;54.412;9.502;2023-03-04T22:09:45;9.13;;;1.60;;
78622;SDS011;67943;54.412;9.502;2023-03-04T22:14:48;9.95;;;1.35;;
78622;SDS011;67943;54.412;9.502;2023-03-04T22:19:49;7.22;;;1.65;;
78622;SDS011;67943;54.412;9.502;2023-03-04T22:24:51;9.02;;;2.03;;
78622;SDS011;67943;54.412;9.502;2023-03-04T22:29:53;11.98;;;1.92;;
78622;SDS011;67943;54.412;9.502;2023-03-04T22:34:55;5.78;;;1.33;;
78622;SDS011;67943;54.412;9.502;2023-03-04T22:45:00;3.93;;;1.00;;
78622;SDS011;67943;54.412;9.502;2023-03-04T22:50:01;9.57;;;1.83;;
78622;SDS011;67943;54.412;9.502;2023-03-04T22:55:03;10.38;;;1.73;;
78622;SDS011;67943;54.412;9.502;2023-03-04T23:00:12;7.85;;;1.17;;
78622;SDS011;67943;54.412;9.502;2023-03-04T23:05:16;11.13;;;1.90;;
78622;SDS011;67943;54.412;9.502;2023-03-04T23:10:20;8.63;;;1.83;;
78622;SDS011;67943;54.412;9.502;2023-03-04T23:15:24;6.22;;;1.33;;
78622;SDS011;67943;54.412;9.502;2023-03-04T23:20:26;7.07;;;1.55;;
78622;SDS011;67943;54.412;9.502;2023-03-04T23:30:30;9.68;;;1.60;;
78622;SDS011;67943;54.412;9.502;2023-03-04T23:35:33;7.43;;;1.50;;
78622;SDS011;67943;54.412;9.502;2023-03-04T23:40:35;7.43;;;1.15;;
78622;SDS011;67943;54.412;9.502;2023-03-04T23:45:38;7.47;;;1.33;;
78622;SDS011;67943;54.412;9.502;2023-03-04T23:50:39;6.72;;;1.10;;
